Wilson, WI (54027)

1:57 AM CDT on September 19, 2014 (GMT -0500)
WIDOT Knapp - I-94 @ CTH Q | Change Station
CLOSE
Current Station
Personal Weather Station
Location: Knapp, WI
Elevation: 1210 ft
Nearby Weather Stations

Elev 1210 ft 44.92 °N, 92.12 °W | Updated 58 minutes ago

Clear
Clear
54 °F
Feels Like 54 °F
N
4
Wind Variable Wind from SSE
Gusts 6.0 mph

Today
High -- | Low -- °F
--% Chance of Precip.
Yesterday
High -- | Low -- °F
Precip. -- in
6:52 AM 7:11 PM
Waning Crescent, 21% visible
Pressure 30.05 in
Visibility 4.0 miles
Clouds Clear
Dew Point 54 °F
Humidity 99%
Rainfall -999.00 in
Snow Depth Not available.
UV 0 out of 12
Pollen 3.90 out of 12
Ozone Good
PM2.5 Good
Flu Activity Not available.
METAR KLUM 190635Z AUTO 12005KT 4SM BR CLR 12/11 A3005 RMK AO2 T01150110

More Conditions Fewer Conditions

Pressure 30.05 in
Visibility 4.0 miles
Clouds Clear
Dew Point 54 °F
Humidity 99%
Rainfall -999.00 in
Snow Depth Not available.
UV 0 out of 12
Pollen 3.90 out of 12
Ozone Good
PM2.5 Good
Flu Activity Not available.
METAR KLUM 190635Z AUTO 12005KT 4SM BR CLR 12/11 A3005 RMK AO2 T01150110

More Conditions Fewer Conditions

10-Day Weather Forecast

Almanac

Astronomy

Sep. 19, 2014 Rise Set
Actual Time 6:52 AM CDT 7:11 PM CDT
Civil Twilight 6:22 AM CDT 7:41 PM CDT
Nautical Twilight 5:48 AM CDT 8:15 PM CDT
Astronomical Twilight 5:12 AM CDT 8:51 PM CDT
Moon 2:28 AM CDT 4:48 PM CDT
Length of Visible Light 13h 18m
Length of Day
12h 19m
Tomorrow will be 3m 6s shorter.
Waning Crescent, 21% of the Moon is Illuminated
Today
Waning Crescent
Sep 24
New
Oct 1
First Quarter
Oct 8
Full
Oct 15
Last Quarter

Today's Extremes

State Highs State Lows

Community

WunderPhotos

Upload Photos

1,754,575 photos uploaded!

Nearby

Air Quality

  Air Quality AQ Index Pollutant
Yesterday Good
OZONE
Yesterday Good
PM2.5
Current Good
PM2.5
Current Good
OZONE
Friday Good
PM2.5
Friday Good
OZONE
Saturday Good
OZONE
Saturday Good
PM2.5
Sunday Good
OZONE
Sunday Good
PM2.5
Monday Good
OZONE
Monday Good
PM2.5
Tuesday Good
PM2.5
Tuesday Good
OZONE

Snow Depth

Station Depth Elevation
No new snow has been reported.

Earthquake Activity

City Distance Mag. Time & Date
No recent earthquake activity has been reported nearby.
Minimum magnitude displayed is 2.5.

Coastal Water Temperatures

Place Temperature
No Stations Reporting

Nearby Weather Stations